sensor_id;sensor_type;location;lat;lon;timestamp;P1;durP1;ratioP1;P2;durP2;ratioP2
62353;SDS011;48391;49.184;2.418;2023-11-21T00:00:56;2.13;;;1.80;;
62353;SDS011;48391;49.184;2.418;2023-11-21T00:03:23;4.40;;;2.83;;
62353;SDS011;48391;49.184;2.418;2023-11-21T00:05:50;1.88;;;1.67;;
62353;SDS011;48391;49.184;2.418;2023-11-21T00:08:16;2.17;;;1.52;;
62353;SDS011;48391;49.184;2.418;2023-11-21T00:10:42;1.50;;;1.38;;
62353;SDS011;48391;49.184;2.418;2023-11-21T00:13:08;3.10;;;2.05;;
62353;SDS011;48391;49.184;2.418;2023-11-21T00:15:34;3.80;;;3.33;;
62353;SDS011;48391;49.184;2.418;2023-11-21T00:18:00;2.47;;;2.28;;
62353;SDS011;48391;49.184;2.418;2023-11-21T00:20:26;4.68;;;2.42;;
62353;SDS011;48391;49.184;2.418;2023-11-21T00:22:52;2.58;;;2.00;;
62353;SDS011;48391;49.184;2.418;2023-11-21T00:25:18;2.80;;;1.92;;
62353;SDS011;48391;49.184;2.418;2023-11-21T00:27:45;2.55;;;1.80;;
62353;SDS011;48391;49.184;2.418;2023-11-21T00:30:11;1.63;;;1.52;;
62353;SDS011;48391;49.184;2.418;2023-11-21T00:32:37;2.08;;;1.88;;
62353;SDS011;48391;49.184;2.418;2023-11-21T00:35:04;2.95;;;2.38;;
62353;SDS011;48391;49.184;2.418;2023-11-21T00:37:30;2.10;;;1.50;;
62353;SDS011;48391;49.184;2.418;2023-11-21T00:39:57;1.70;;;1.58;;
62353;SDS011;48391;49.184;2.418;2023-11-21T00:42:23;2.33;;;1.60;;
62353;SDS011;48391;49.184;2.418;2023-11-21T00:44:49;2.55;;;1.83;;
62353;SDS011;48391;49.184;2.418;2023-11-21T00:47:15;1.63;;;1.52;;
62353;SDS011;48391;49.184;2.418;2023-11-21T00:49:41;3.53;;;1.70;;
62353;SDS011;48391;49.184;2.418;2023-11-21T00:52:08;1.65;;;1.48;;
62353;SDS011;48391;49.184;2.418;2023-11-21T00:54:34;1.80;;;1.70;;
62353;SDS011;48391;49.184;2.418;2023-11-21T00:57:00;1.98;;;1.77;;
62353;SDS011;48391;49.184;2.418;2023-11-21T00:59:27;2.05;;;1.85;;
62353;SDS011;48391;49.184;2.418;2023-11-21T01:01:53;1.65;;;1.55;;
62353;SDS011;48391;49.184;2.418;2023-11-21T01:04:19;1.40;;;1.30;;
62353;SDS011;48391;49.184;2.418;2023-11-21T01:06:45;2.28;;;1.33;;
62353;SDS011;48391;49.184;2.418;2023-11-21T01:09:11;2.65;;;1.90;;
62353;SDS011;48391;49.184;2.418;2023-11-21T01:11:37;1.67;;;1.58;;
62353;SDS011;48391;49.184;2.418;2023-11-21T01:14:04;2.22;;;1.90;;
62353;SDS011;48391;49.184;2.418;2023-11-21T01:16:31;3.03;;;1.58;;
62353;SDS011;48391;49.184;2.418;2023-11-21T01:18:57;1.98;;;1.63;;
62353;SDS011;48391;49.184;2.418;2023-11-21T01:21:24;2.70;;;2.40;;
62353;SDS011;48391;49.184;2.418;2023-11-21T01:23:50;1.40;;;1.30;;
62353;SDS011;48391;49.184;2.418;2023-11-21T01:26:16;3.10;;;1.83;;
62353;SDS011;48391;49.184;2.418;2023-11-21T01:28:42;2.33;;;1.92;;
62353;SDS011;48391;49.184;2.418;2023-11-21T01:31:08;1.88;;;1.63;;
62353;SDS011;48391;49.184;2.418;2023-11-21T01:33:34;1.50;;;1.40;;
62353;SDS011;48391;49.184;2.418;2023-11-21T01:36:00;3.95;;;2.42;;
62353;SDS011;48391;49.184;2.418;2023-11-21T01:38:26;2.17;;;1.95;;
62353;SDS011;48391;49.184;2.418;2023-11-21T01:40:52;2.45;;;2.25;;
62353;SDS011;48391;49.184;2.418;2023-11-21T01:43:18;2.75;;;2.10;;
62353;SDS011;48391;49.184;2.418;2023-11-21T01:45:44;2.75;;;2.17;;
62353;SDS011;48391;49.184;2.418;2023-11-21T01:48:10;3.72;;;2.92;;
62353;SDS011;48391;49.184;2.418;2023-11-21T01:50:37;4.57;;;2.60;;
62353;SDS011;48391;49.184;2.418;2023-11-21T01:53:03;3.58;;;2.55;;
62353;SDS011;48391;49.184;2.418;2023-11-21T01:55:29;3.05;;;2.15;;
62353;SDS011;48391;49.184;2.418;2023-11-21T01:57:56;2.17;;;1.98;;
62353;SDS011;48391;49.184;2.418;2023-11-21T02:00:22;2.50;;;2.30;;
62353;SDS011;48391;49.184;2.418;2023-11-21T02:02:49;4.10;;;3.00;;
62353;SDS011;48391;49.184;2.418;2023-11-21T02:05:15;3.22;;;2.67;;
62353;SDS011;48391;49.184;2.418;2023-11-21T02:10:20;3.25;;;2.55;;
62353;SDS011;48391;49.184;2.418;2023-11-21T02:12:48;2.78;;;2.25;;
62353;SDS011;48391;49.184;2.418;2023-11-21T02:15:15;4.30;;;2.95;;
62353;SDS011;48391;49.184;2.418;2023-11-21T02:17:45;3.70;;;2.55;;
62353;SDS011;48391;49.184;2.418;2023-11-21T02:20:18;4.07;;;2.75;;
62353;SDS011;48391;49.184;2.418;2023-11-21T02:22:54;3.28;;;2.00;;
62353;SDS011;48391;49.184;2.418;2023-11-21T02:25:25;3.25;;;2.95;;
62353;SDS011;48391;49.184;2.418;2023-11-21T02:27:52;2.55;;;2.35;;
62353;SDS011;48391;49.184;2.418;2023-11-21T02:30:19;3.75;;;2.17;;
62353;SDS011;48391;49.184;2.418;2023-11-21T02:32:46;1.88;;;1.77;;
62353;SDS011;48391;49.184;2.418;2023-11-21T02:35:13;3.13;;;1.92;;
62353;SDS011;48391;49.184;2.418;2023-11-21T02:37:40;2.00;;;1.80;;
62353;SDS011;48391;49.184;2.418;2023-11-21T02:40:08;3.25;;;2.53;;
62353;SDS011;48391;49.184;2.418;2023-11-21T02:42:34;2.17;;;1.98;;
62353;SDS011;48391;49.184;2.418;2023-11-21T02:45:00;2.35;;;1.90;;
62353;SDS011;48391;49.184;2.418;2023-11-21T02:47:26;2.63;;;2.20;;
62353;SDS011;48391;49.184;2.418;2023-11-21T02:49:53;3.10;;;2.80;;
62353;SDS011;48391;49.184;2.418;2023-11-21T02:52:19;2.25;;;1.80;;
62353;SDS011;48391;49.184;2.418;2023-11-21T02:54:45;2.67;;;2.47;;
62353;SDS011;48391;49.184;2.418;2023-11-21T02:57:11;2.28;;;2.08;;
62353;SDS011;48391;49.184;2.418;2023-11-21T02:59:38;2.58;;;2.38;;
62353;SDS011;48391;49.184;2.418;2023-11-21T03:02:04;2.03;;;1.83;;
62353;SDS011;48391;49.184;2.418;2023-11-21T03:04:33;2.38;;;1.90;;
62353;SDS011;48391;49.184;2.418;2023-11-21T03:07:00;2.60;;;2.08;;
62353;SDS011;48391;49.184;2.418;2023-11-21T03:09:26;3.65;;;2.97;;
62353;SDS011;48391;49.184;2.418;2023-11-21T03:11:52;5.38;;;3.40;;
62353;SDS011;48391;49.184;2.418;2023-11-21T03:14:18;3.25;;;2.05;;
62353;SDS011;48391;49.184;2.418;2023-11-21T03:16:45;4.05;;;2.75;;
62353;SDS011;48391;49.184;2.418;2023-11-21T03:19:11;3.17;;;2.38;;
62353;SDS011;48391;49.184;2.418;2023-11-21T03:21:37;3.08;;;2.75;;
62353;SDS011;48391;49.184;2.418;2023-11-21T03:24:03;2.42;;;2.17;;
62353;SDS011;48391;49.184;2.418;2023-11-21T03:26:29;3.30;;;2.20;;
62353;SDS011;48391;49.184;2.418;2023-11-21T03:28:56;3.33;;;1.85;;
62353;SDS011;48391;49.184;2.418;2023-11-21T03:31:22;2.67;;;2.33;;
62353;SDS011;48391;49.184;2.418;2023-11-21T03:33:48;2.05;;;1.88;;
62353;SDS011;48391;49.184;2.418;2023-11-21T03:36:14;1.95;;;1.55;;
62353;SDS011;48391;49.184;2.418;2023-11-21T03:38:40;2.08;;;1.75;;
62353;SDS011;48391;49.184;2.418;2023-11-21T03:41:07;1.70;;;1.60;;
62353;SDS011;48391;49.184;2.418;2023-11-21T03:43:36;2.60;;;1.60;;
62353;SDS011;48391;49.184;2.418;2023-11-21T03:46:02;1.92;;;1.75;;
62353;SDS011;48391;49.184;2.418;2023-11-21T03:48:29;2.00;;;1.80;;
62353;SDS011;48391;49.184;2.418;2023-11-21T03:50:55;2.58;;;1.65;;
62353;SDS011;48391;49.184;2.418;2023-11-21T03:53:21;1.63;;;1.52;;
62353;SDS011;48391;49.184;2.418;2023-11-21T03:55:47;1.55;;;1.45;;
62353;SDS011;48391;49.184;2.418;2023-11-21T03:58:14;2.30;;;2.08;;
62353;SDS011;48391;49.184;2.418;2023-11-21T04:00:40;2.22;;;1.45;;
62353;SDS011;48391;49.184;2.418;2023-11-21T04:03:06;2.00;;;1.70;;
62353;SDS011;48391;49.184;2.418;2023-11-21T04:05:32;1.77;;;1.50;;
62353;SDS011;48391;49.184;2.418;2023-11-21T04:07:58;1.92;;;1.67;;
62353;SDS011;48391;49.184;2.418;2023-11-21T04:10:24;2.50;;;1.90;;
62353;SDS011;48391;49.184;2.418;2023-11-21T04:12:50;3.17;;;1.80;;
62353;SDS011;48391;49.184;2.418;2023-11-21T04:15:16;3.63;;;2.15;;
62353;SDS011;48391;49.184;2.418;2023-11-21T04:17:42;3.08;;;1.98;;
62353;SDS011;48391;49.184;2.418;2023-11-21T04:20:10;3.95;;;1.92;;
62353;SDS011;48391;49.184;2.418;2023-11-21T04:22:40;2.67;;;1.95;;
62353;SDS011;48391;49.184;2.418;2023-11-21T04:25:07;3.67;;;1.98;;
62353;SDS011;48391;49.184;2.418;2023-11-21T04:27:34;2.30;;;1.88;;
62353;SDS011;48391;49.184;2.418;2023-11-21T04:30:00;2.13;;;1.83;;
62353;SDS011;48391;49.184;2.418;2023-11-21T04:32:26;1.40;;;1.30;;
62353;SDS011;48391;49.184;2.418;2023-11-21T04:34:52;1.75;;;1.40;;
62353;SDS011;48391;49.184;2.418;2023-11-21T04:37:18;1.88;;;1.77;;
62353;SDS011;48391;49.184;2.418;2023-11-21T04:39:44;1.92;;;1.70;;
62353;SDS011;48391;49.184;2.418;2023-11-21T04:42:10;3.60;;;2.28;;
62353;SDS011;48391;49.184;2.418;2023-11-21T04:44:37;1.65;;;1.55;;
62353;SDS011;48391;49.184;2.418;2023-11-21T04:47:06;1.55;;;1.45;;
62353;SDS011;48391;49.184;2.418;2023-11-21T04:49:32;1.48;;;1.38;;
62353;SDS011;48391;49.184;2.418;2023-11-21T04:51:58;2.90;;;1.63;;
62353;SDS011;48391;49.184;2.418;2023-11-21T04:54:25;2.45;;;1.58;;
62353;SDS011;48391;49.184;2.418;2023-11-21T04:56:51;1.60;;;1.45;;
62353;SDS011;48391;49.184;2.418;2023-11-21T04:59:17;2.08;;;1.40;;
62353;SDS011;48391;49.184;2.418;2023-11-21T05:01:43;1.52;;;1.35;;
62353;SDS011;48391;49.184;2.418;2023-11-21T05:04:09;2.00;;;1.58;;
62353;SDS011;48391;49.184;2.418;2023-11-21T05:06:35;2.05;;;1.70;;
62353;SDS011;48391;49.184;2.418;2023-11-21T05:09:01;1.48;;;1.25;;
62353;SDS011;48391;49.184;2.418;2023-11-21T05:11:27;2.28;;;1.95;;
62353;SDS011;48391;49.184;2.418;2023-11-21T05:13:54;2.22;;;2.03;;
62353;SDS011;48391;49.184;2.418;2023-11-21T05:16:25;2.33;;;2.10;;
62353;SDS011;48391;49.184;2.418;2023-11-21T05:18:55;2.33;;;2.00;;
62353;SDS011;48391;49.184;2.418;2023-11-21T05:21:25;2.40;;;1.85;;
62353;SDS011;48391;49.184;2.418;2023-11-21T05:23:51;1.85;;;1.55;;
62353;SDS011;48391;49.184;2.418;2023-11-21T05:26:17;1.48;;;1.33;;
62353;SDS011;48391;49.184;2.418;2023-11-21T05:28:43;1.33;;;1.25;;
62353;SDS011;48391;49.184;2.418;2023-11-21T05:31:09;2.65;;;1.35;;
62353;SDS011;48391;49.184;2.418;2023-11-21T05:33:36;1.45;;;1.40;;
62353;SDS011;48391;49.184;2.418;2023-11-21T05:36:02;2.33;;;2.10;;
62353;SDS011;48391;49.184;2.418;2023-11-21T05:38:28;1.58;;;1.35;;
62353;SDS011;48391;49.184;2.418;2023-11-21T05:40:54;1.70;;;1.60;;
62353;SDS011;48391;49.184;2.418;2023-11-21T05:43:20;1.77;;;1.58;;
62353;SDS011;48391;49.184;2.418;2023-11-21T05:45:46;1.95;;;1.77;;
62353;SDS011;48391;49.184;2.418;2023-11-21T05:48:12;2.63;;;1.67;;
62353;SDS011;48391;49.184;2.418;2023-11-21T05:50:38;1.75;;;1.60;;
62353;SDS011;48391;49.184;2.418;2023-11-21T05:53:04;1.65;;;1.55;;
62353;SDS011;48391;49.184;2.418;2023-11-21T05:55:30;2.60;;;1.98;;
62353;SDS011;48391;49.184;2.418;2023-11-21T05:57:56;2.08;;;1.70;;
62353;SDS011;48391;49.184;2.418;2023-11-21T06:00:22;1.92;;;1.80;;
62353;SDS011;48391;49.184;2.418;2023-11-21T06:02:50;1.50;;;1.40;;
62353;SDS011;48391;49.184;2.418;2023-11-21T06:05:20;2.33;;;2.05;;
62353;SDS011;48391;49.184;2.418;2023-11-21T06:07:48;1.80;;;1.70;;
62353;SDS011;48391;49.184;2.418;2023-11-21T06:10:14;1.67;;;1.58;;
62353;SDS011;48391;49.184;2.418;2023-11-21T06:12:42;2.10;;;1.90;;
62353;SDS011;48391;49.184;2.418;2023-11-21T06:15:09;1.88;;;1.60;;
62353;SDS011;48391;49.184;2.418;2023-11-21T06:17:38;2.17;;;2.00;;
62353;SDS011;48391;49.184;2.418;2023-11-21T06:20:07;3.15;;;2.58;;
62353;SDS011;48391;49.184;2.418;2023-11-21T06:22:37;2.72;;;2.53;;
62353;SDS011;48391;49.184;2.418;2023-11-21T06:25:03;2.78;;;2.50;;
62353;SDS011;48391;49.184;2.418;2023-11-21T06:27:31;2.47;;;2.28;;
62353;SDS011;48391;49.184;2.418;2023-11-21T06:29:58;3.20;;;2.38;;
62353;SDS011;48391;49.184;2.418;2023-11-21T06:32:24;2.25;;;2.10;;
62353;SDS011;48391;49.184;2.418;2023-11-21T06:34:51;2.25;;;2.00;;
62353;SDS011;48391;49.184;2.418;2023-11-21T06:37:19;2.03;;;1.83;;
62353;SDS011;48391;49.184;2.418;2023-11-21T06:39:48;4.07;;;2.00;;
62353;SDS011;48391;49.184;2.418;2023-11-21T06:42:17;2.08;;;1.73;;
62353;SDS011;48391;49.184;2.418;2023-11-21T06:44:44;2.35;;;1.67;;
62353;SDS011;48391;49.184;2.418;2023-11-21T06:47:10;2.03;;;1.80;;
62353;SDS011;48391;49.184;2.418;2023-11-21T06:49:36;1.52;;;1.40;;
62353;SDS011;48391;49.184;2.418;2023-11-21T06:52:03;2.53;;;1.20;;
62353;SDS011;48391;49.184;2.418;2023-11-21T06:54:30;2.97;;;1.92;;
62353;SDS011;48391;49.184;2.418;2023-11-21T06:56:57;1.63;;;1.50;;
62353;SDS011;48391;49.184;2.418;2023-11-21T06:59:23;1.83;;;1.50;;
62353;SDS011;48391;49.184;2.418;2023-11-21T07:01:50;2.35;;;2.15;;
62353;SDS011;48391;49.184;2.418;2023-11-21T07:04:17;2.65;;;2.45;;
62353;SDS011;48391;49.184;2.418;2023-11-21T07:06:43;2.42;;;2.22;;
62353;SDS011;48391;49.184;2.418;2023-11-21T07:09:09;2.50;;;2.30;;
62353;SDS011;48391;49.184;2.418;2023-11-21T07:11:37;2.13;;;1.92;;
62353;SDS011;48391;49.184;2.418;2023-11-21T07:14:06;2.80;;;2.53;;
62353;SDS011;48391;49.184;2.418;2023-11-21T07:16:36;2.50;;;2.30;;
62353;SDS011;48391;49.184;2.418;2023-11-21T07:19:06;2.60;;;2.40;;
62353;SDS011;48391;49.184;2.418;2023-11-21T07:21:32;2.58;;;2.38;;
62353;SDS011;48391;49.184;2.418;2023-11-21T07:23:59;2.40;;;2.20;;
62353;SDS011;48391;49.184;2.418;2023-11-21T07:26:26;3.08;;;2.78;;
62353;SDS011;48391;49.184;2.418;2023-11-21T07:28:52;3.22;;;2.92;;
62353;SDS011;48391;49.184;2.418;2023-11-21T07:31:18;2.88;;;2.58;;
62353;SDS011;48391;49.184;2.418;2023-11-21T07:33:45;3.25;;;3.03;;
62353;SDS011;48391;49.184;2.418;2023-11-21T07:36:14;2.92;;;2.47;;
62353;SDS011;48391;49.184;2.418;2023-11-21T07:38:40;1.90;;;1.80;;
62353;SDS011;48391;49.184;2.418;2023-11-21T07:41:06;2.42;;;2.22;;
62353;SDS011;48391;49.184;2.418;2023-11-21T07:43:35;1.95;;;1.85;;
62353;SDS011;48391;49.184;2.418;2023-11-21T07:46:02;2.90;;;2.58;;
62353;SDS011;48391;49.184;2.418;2023-11-21T07:48:32;2.45;;;2.25;;
62353;SDS011;48391;49.184;2.418;2023-11-21T07:50:58;2.15;;;2.00;;
62353;SDS011;48391;49.184;2.418;2023-11-21T07:53:24;1.95;;;1.85;;
62353;SDS011;48391;49.184;2.418;2023-11-21T07:55:53;2.88;;;2.65;;
62353;SDS011;48391;49.184;2.418;2023-11-21T07:58:20;2.30;;;2.05;;
62353;SDS011;48391;49.184;2.418;2023-11-21T08:00:46;1.90;;;1.70;;
62353;SDS011;48391;49.184;2.418;2023-11-21T08:03:15;3.80;;;2.90;;
62353;SDS011;48391;49.184;2.418;2023-11-21T08:05:41;2.42;;;2.22;;
62353;SDS011;48391;49.184;2.418;2023-11-21T08:08:07;3.15;;;2.85;;
62353;SDS011;48391;49.184;2.418;2023-11-21T08:10:33;3.70;;;2.65;;
62353;SDS011;48391;49.184;2.418;2023-11-21T08:13:00;2.17;;;1.98;;
62353;SDS011;48391;49.184;2.418;2023-11-21T08:15:26;2.45;;;2.25;;
62353;SDS011;48391;49.184;2.418;2023-11-21T08:17:53;2.13;;;1.95;;
62353;SDS011;48391;49.184;2.418;2023-11-21T08:20:19;2.92;;;1.77;;
62353;SDS011;48391;49.184;2.418;2023-11-21T08:22:45;1.90;;;1.80;;
62353;SDS011;48391;49.184;2.418;2023-11-21T08:25:12;1.83;;;1.73;;
62353;SDS011;48391;49.184;2.418;2023-11-21T08:27:38;2.88;;;2.60;;
62353;SDS011;48391;49.184;2.418;2023-11-21T08:30:05;2.97;;;2.72;;
62353;SDS011;48391;49.184;2.418;2023-11-21T08:32:32;4.05;;;3.55;;
62353;SDS011;48391;49.184;2.418;2023-11-21T08:34:58;2.33;;;2.13;;
62353;SDS011;48391;49.184;2.418;2023-11-21T08:37:25;1.73;;;1.63;;
62353;SDS011;48391;49.184;2.418;2023-11-21T08:39:55;1.63;;;1.52;;
62353;SDS011;48391;49.184;2.418;2023-11-21T08:42:24;2.42;;;2.15;;
62353;SDS011;48391;49.184;2.418;2023-11-21T08:44:53;2.90;;;2.70;;
62353;SDS011;48391;49.184;2.418;2023-11-21T08:47:19;2.42;;;2.22;;
62353;SDS011;48391;49.184;2.418;2023-11-21T08:49:45;1.90;;;1.80;;
62353;SDS011;48391;49.184;2.418;2023-11-21T08:52:12;2.13;;;2.03;;
62353;SDS011;48391;49.184;2.418;2023-11-21T08:54:39;1.92;;;1.77;;
62353;SDS011;48391;49.184;2.418;2023-11-21T08:57:05;1.58;;;1.48;;
62353;SDS011;48391;49.184;2.418;2023-11-21T08:59:31;1.83;;;1.50;;
62353;SDS011;48391;49.184;2.418;2023-11-21T09:01:57;1.65;;;1.55;;
62353;SDS011;48391;49.184;2.418;2023-11-21T09:04:23;4.03;;;1.98;;
62353;SDS011;48391;49.184;2.418;2023-11-21T09:06:48;1.73;;;1.60;;
62353;SDS011;48391;49.184;2.418;2023-11-21T09:09:15;2.22;;;2.10;;
62353;SDS011;48391;49.184;2.418;2023-11-21T09:11:41;2.78;;;2.58;;
62353;SDS011;48391;49.184;2.418;2023-11-21T09:14:09;2.65;;;2.05;;
62353;SDS011;48391;49.184;2.418;2023-11-21T09:16:37;3.20;;;1.77;;
62353;SDS011;48391;49.184;2.418;2023-11-21T09:19:04;2.45;;;1.60;;
62353;SDS011;48391;49.184;2.418;2023-11-21T09:21:30;1.55;;;1.05;;
62353;SDS011;48391;49.184;2.418;2023-11-21T09:23:56;2.28;;;2.08;;
62353;SDS011;48391;49.184;2.418;2023-11-21T09:26:23;2.08;;;1.92;;
62353;SDS011;48391;49.184;2.418;2023-11-21T09:28:49;1.38;;;1.27;;
62353;SDS011;48391;49.184;2.418;2023-11-21T09:31:15;14.52;;;1.92;;
62353;SDS011;48391;49.184;2.418;2023-11-21T09:33:42;1.80;;;1.50;;
62353;SDS011;48391;49.184;2.418;2023-11-21T09:36:12;1.33;;;1.23;;
62353;SDS011;48391;49.184;2.418;2023-11-21T09:38:41;2.65;;;1.15;;
62353;SDS011;48391;49.184;2.418;2023-11-21T09:41:21;1.08;;;0.90;;
62353;SDS011;48391;49.184;2.418;2023-11-21T09:43:49;0.80;;;0.80;;
62353;SDS011;48391;49.184;2.418;2023-11-21T09:46:18;1.48;;;0.82;;
62353;SDS011;48391;49.184;2.418;2023-11-21T09:48:50;0.80;;;0.70;;
62353;SDS011;48391;49.184;2.418;2023-11-21T09:51:18;0.95;;;0.70;;
62353;SDS011;48391;49.184;2.418;2023-11-21T09:53:47;0.40;;;0.40;;
62353;SDS011;48391;49.184;2.418;2023-11-21T09:56:14;1.20;;;0.60;;
62353;SDS011;48391;49.184;2.418;2023-11-21T09:58:44;1.73;;;0.93;;
62353;SDS011;48391;49.184;2.418;2023-11-21T10:01:10;0.98;;;0.80;;
62353;SDS011;48391;49.184;2.418;2023-11-21T10:03:37;1.15;;;0.85;;
62353;SDS011;48391;49.184;2.418;2023-11-21T10:06:03;1.60;;;0.70;;
62353;SDS011;48391;49.184;2.418;2023-11-21T10:08:30;0.52;;;0.52;;
62353;SDS011;48391;49.184;2.418;2023-11-21T10:10:58;0.73;;;0.73;;
62353;SDS011;48391;49.184;2.418;2023-11-21T10:13:24;3.67;;;0.95;;
62353;SDS011;48391;49.184;2.418;2023-11-21T10:15:52;0.47;;;0.47;;
62353;SDS011;48391;49.184;2.418;2023-11-21T10:18:18;0.50;;;0.50;;
62353;SDS011;48391;49.184;2.418;2023-11-21T10:20:45;0.70;;;0.60;;
62353;SDS011;48391;49.184;2.418;2023-11-21T10:23:19;0.60;;;0.45;;
62353;SDS011;48391;49.184;2.418;2023-11-21T10:25:47;0.60;;;0.60;;
62353;SDS011;48391;49.184;2.418;2023-11-21T10:28:14;2.50;;;0.85;;
62353;SDS011;48391;49.184;2.418;2023-11-21T10:30:40;2.38;;;0.77;;
62353;SDS011;48391;49.184;2.418;2023-11-21T10:33:07;2.45;;;1.10;;
62353;SDS011;48391;49.184;2.418;2023-11-21T10:35:42;0.93;;;0.50;;
62353;SDS011;48391;49.184;2.418;2023-11-21T10:38:11;0.65;;;0.55;;
62353;SDS011;48391;49.184;2.418;2023-11-21T10:40:39;0.38;;;0.30;;
62353;SDS011;48391;49.184;2.418;2023-11-21T10:43:08;0.63;;;0.63;;
62353;SDS011;48391;49.184;2.418;2023-11-21T10:45:35;0.50;;;0.40;;
62353;SDS011;48391;49.184;2.418;2023-11-21T10:48:04;0.50;;;0.30;;
62353;SDS011;48391;49.184;2.418;2023-11-21T10:50:32;1.70;;;0.70;;
62353;SDS011;48391;49.184;2.418;2023-11-21T10:53:00;0.85;;;0.60;;
62353;SDS011;48391;49.184;2.418;2023-11-21T10:55:27;0.55;;;0.28;;
62353;SDS011;48391;49.184;2.418;2023-11-21T10:57:53;1.65;;;0.50;;
62353;SDS011;48391;49.184;2.418;2023-11-21T11:00:20;0.88;;;0.85;;
62353;SDS011;48391;49.184;2.418;2023-11-21T11:02:50;0.60;;;0.60;;
62353;SDS011;48391;49.184;2.418;2023-11-21T11:05:20;1.10;;;0.55;;
62353;SDS011;48391;49.184;2.418;2023-11-21T11:07:50;0.43;;;0.43;;
62353;SDS011;48391;49.184;2.418;2023-11-21T11:10:22;0.47;;;0.32;;
62353;SDS011;48391;49.184;2.418;2023-11-21T11:12:51;0.28;;;0.28;;
62353;SDS011;48391;49.184;2.418;2023-11-21T11:15:17;0.57;;;0.57;;
62353;SDS011;48391;49.184;2.418;2023-11-21T11:17:44;0.73;;;0.73;;
62353;SDS011;48391;49.184;2.418;2023-11-21T11:20:11;1.00;;;0.63;;
62353;SDS011;48391;49.184;2.418;2023-11-21T11:22:59;1.30;;;0.70;;
62353;SDS011;48391;49.184;2.418;2023-11-21T11:25:35;0.30;;;0.30;;
62353;SDS011;48391;49.184;2.418;2023-11-21T11:28:08;1.08;;;0.98;;
62353;SDS011;48391;49.184;2.418;2023-11-21T11:36:00;1.88;;;0.60;;
62353;SDS011;48391;49.184;2.418;2023-11-21T11:38:31;1.42;;;1.08;;
62353;SDS011;48391;49.184;2.418;2023-11-21T11:40:59;1.33;;;0.60;;
62353;SDS011;48391;49.184;2.418;2023-11-21T11:43:27;0.73;;;0.70;;
62353;SDS011;48391;49.184;2.418;2023-11-21T11:45:57;1.15;;;0.38;;
62353;SDS011;48391;49.184;2.418;2023-11-21T11:48:24;0.35;;;0.30;;
62353;SDS011;48391;49.184;2.418;2023-11-21T11:51:03;1.65;;;0.50;;
62353;SDS011;48391;49.184;2.418;2023-11-21T11:53:33;1.42;;;0.50;;
62353;SDS011;48391;49.184;2.418;2023-11-21T11:58:47;0.70;;;0.50;;
62353;SDS011;48391;49.184;2.418;2023-11-21T12:01:13;0.45;;;0.45;;
62353;SDS011;48391;49.184;2.418;2023-11-21T12:03:40;0.75;;;0.55;;
62353;SDS011;48391;49.184;2.418;2023-11-21T12:06:06;0.80;;;0.80;;
62353;SDS011;48391;49.184;2.418;2023-11-21T12:08:34;1.13;;;1.00;;
62353;SDS011;48391;49.184;2.418;2023-11-21T12:11:01;0.57;;;0.40;;
62353;SDS011;48391;49.184;2.418;2023-11-21T12:13:27;1.88;;;0.70;;
62353;SDS011;48391;49.184;2.418;2023-11-21T12:15:54;0.50;;;0.50;;
62353;SDS011;48391;49.184;2.418;2023-11-21T12:18:20;1.67;;;1.02;;
62353;SDS011;48391;49.184;2.418;2023-11-21T12:20:46;1.23;;;0.80;;
62353;SDS011;48391;49.184;2.418;2023-11-21T12:23:15;2.65;;;0.70;;
62353;SDS011;48391;49.184;2.418;2023-11-21T12:25:42;0.57;;;0.57;;
62353;SDS011;48391;49.184;2.418;2023-11-21T12:28:08;0.68;;;0.63;;
62353;SDS011;48391;49.184;2.418;2023-11-21T12:30:36;1.65;;;0.63;;
62353;SDS011;48391;49.184;2.418;2023-11-21T12:33:06;0.32;;;0.32;;
62353;SDS011;48391;49.184;2.418;2023-11-21T12:35:34;2.17;;;0.65;;
62353;SDS011;48391;49.184;2.418;2023-11-21T12:38:00;0.50;;;0.50;;
62353;SDS011;48391;49.184;2.418;2023-11-21T12:40:30;1.08;;;0.80;;
62353;SDS011;48391;49.184;2.418;2023-11-21T12:42:56;4.22;;;2.10;;
62353;SDS011;48391;49.184;2.418;2023-11-21T12:45:24;0.30;;;0.20;;
62353;SDS011;48391;49.184;2.418;2023-11-21T12:47:51;1.02;;;0.52;;
62353;SDS011;48391;49.184;2.418;2023-11-21T12:50:18;0.80;;;0.68;;
62353;SDS011;48391;49.184;2.418;2023-11-21T12:52:48;0.30;;;0.28;;
62353;SDS011;48391;49.184;2.418;2023-11-21T12:55:18;1.85;;;0.40;;
62353;SDS011;48391;49.184;2.418;2023-11-21T12:57:47;0.30;;;0.20;;
62353;SDS011;48391;49.184;2.418;2023-11-21T13:00:16;2.17;;;0.70;;
62353;SDS011;48391;49.184;2.418;2023-11-21T13:02:52;4.32;;;0.82;;
62353;SDS011;48391;49.184;2.418;2023-11-21T13:05:26;0.60;;;0.47;;
62353;SDS011;48391;49.184;2.418;2023-11-21T13:07:53;0.43;;;0.30;;
62353;SDS011;48391;49.184;2.418;2023-11-21T13:10:21;0.35;;;0.20;;
62353;SDS011;48391;49.184;2.418;2023-11-21T13:12:51;2.40;;;0.52;;
62353;SDS011;48391;49.184;2.418;2023-11-21T13:15:17;0.75;;;0.25;;
62353;SDS011;48391;49.184;2.418;2023-11-21T13:17:44;0.73;;;0.43;;
62353;SDS011;48391;49.184;2.418;2023-11-21T13:20:11;0.40;;;0.30;;
62353;SDS011;48391;49.184;2.418;2023-11-21T13:22:48;0.10;;;0.10;;
62353;SDS011;48391;49.184;2.418;2023-11-21T13:25:17;0.23;;;0.07;;
62353;SDS011;48391;49.184;2.418;2023-11-21T13:27:44;0.38;;;0.38;;
62353;SDS011;48391;49.184;2.418;2023-11-21T13:30:12;0.20;;;0.20;;
62353;SDS011;48391;49.184;2.418;2023-11-21T13:32:40;0.30;;;0.10;;
62353;SDS011;48391;49.184;2.418;2023-11-21T13:35:06;0.30;;;0.10;;
62353;SDS011;48391;49.184;2.418;2023-11-21T13:37:37;0.45;;;0.20;;
62353;SDS011;48391;49.184;2.418;2023-11-21T13:40:04;0.10;;;0.00;;
62353;SDS011;48391;49.184;2.418;2023-11-21T13:42:39;0.10;;;0.00;;
62353;SDS011;48391;49.184;2.418;2023-11-21T13:45:06;0.90;;;0.50;;
62353;SDS011;48391;49.184;2.418;2023-11-21T13:47:32;0.38;;;0.05;;
62353;SDS011;48391;49.184;2.418;2023-11-21T13:49:59;0.13;;;0.08;;
62353;SDS011;48391;49.184;2.418;2023-11-21T13:52:25;0.50;;;0.00;;
62353;SDS011;48391;49.184;2.418;2023-11-21T13:54:53;1.80;;;0.43;;
62353;SDS011;48391;49.184;2.418;2023-11-21T13:57:19;1.25;;;0.10;;
62353;SDS011;48391;49.184;2.418;2023-11-21T13:59:46;2.80;;;0.52;;
62353;SDS011;48391;49.184;2.418;2023-11-21T14:02:12;1.10;;;0.10;;
62353;SDS011;48391;49.184;2.418;2023-11-21T14:04:45;0.57;;;0.10;;
62353;SDS011;48391;49.184;2.418;2023-11-21T14:07:23;0.90;;;0.10;;
62353;SDS011;48391;49.184;2.418;2023-11-21T14:10:00;0.68;;;0.10;;
62353;SDS011;48391;49.184;2.418;2023-11-21T14:12:26;0.10;;;0.10;;
62353;SDS011;48391;49.184;2.418;2023-11-21T14:14:53;0.88;;;0.10;;
62353;SDS011;48391;49.184;2.418;2023-11-21T14:17:20;2.00;;;0.28;;
62353;SDS011;48391;49.184;2.418;2023-11-21T14:19:49;0.10;;;0.10;;
62353;SDS011;48391;49.184;2.418;2023-11-21T14:22:15;0.43;;;0.10;;
62353;SDS011;48391;49.184;2.418;2023-11-21T14:24:42;1.05;;;0.30;;
62353;SDS011;48391;49.184;2.418;2023-11-21T14:27:12;2.65;;;0.60;;
62353;SDS011;48391;49.184;2.418;2023-11-21T14:29:38;1.15;;;0.20;;
62353;SDS011;48391;49.184;2.418;2023-11-21T14:32:08;2.25;;;0.52;;
62353;SDS011;48391;49.184;2.418;2023-11-21T14:34:34;2.95;;;0.50;;
62353;SDS011;48391;49.184;2.418;2023-11-21T14:37:01;1.02;;;0.10;;
62353;SDS011;48391;49.184;2.418;2023-11-21T14:39:30;0.38;;;0.22;;
62353;SDS011;48391;49.184;2.418;2023-11-21T14:42:02;0.75;;;0.10;;
62353;SDS011;48391;49.184;2.418;2023-11-21T14:44:29;0.70;;;0.30;;
62353;SDS011;48391;49.184;2.418;2023-11-21T14:47:00;1.58;;;0.17;;
62353;SDS011;48391;49.184;2.418;2023-11-21T14:49:31;0.43;;;0.20;;
62353;SDS011;48391;49.184;2.418;2023-11-21T14:52:09;1.77;;;0.45;;
62353;SDS011;48391;49.184;2.418;2023-11-21T14:54:55;0.60;;;0.30;;
62353;SDS011;48391;49.184;2.418;2023-11-21T14:57:41;2.28;;;0.32;;
62353;SDS011;48391;49.184;2.418;2023-11-21T15:00:14;0.63;;;0.43;;